createdAt,value
2023-04-09T00:01:57.143Z,8.69
2023-04-09T00:04:27.489Z,8.69
2023-04-09T00:07:09.553Z,8.70
2023-04-09T00:09:41.648Z,8.70
2023-04-09T00:12:17.491Z,8.62
2023-04-09T00:14:58.693Z,8.63
2023-04-09T00:17:35.675Z,8.65
2023-04-09T00:20:10.143Z,8.68
2023-04-09T00:22:44.791Z,8.72
2023-04-09T00:25:17.485Z,8.75
2023-04-09T00:27:52.530Z,8.77
2023-04-09T00:30:34.401Z,8.75
2023-04-09T00:33:15.265Z,8.72
2023-04-09T00:35:45.839Z,8.67
2023-04-09T00:38:16.329Z,8.65
2023-04-09T00:40:58.182Z,8.63
2023-04-09T00:43:30.772Z,8.62
2023-04-09T00:46:02.074Z,8.62
2023-04-09T00:48:33.216Z,8.64
2023-04-09T00:51:10.775Z,8.65
2023-04-09T00:53:44.288Z,8.66
2023-04-09T00:56:17.026Z,8.69
2023-04-09T00:58:52.812Z,8.70
2023-04-09T01:01:25.656Z,8.71
2023-04-09T01:04:09.053Z,8.72
2023-04-09T01:07:00.097Z,8.73
2023-04-09T01:09:43.699Z,8.73
2023-04-09T01:12:57.672Z,8.73
2023-04-09T01:15:37.708Z,8.71
2023-04-09T01:18:24.088Z,8.69
2023-04-09T01:21:23.277Z,8.69
2023-04-09T01:24:23.460Z,8.67
2023-04-09T01:27:08.489Z,8.66
2023-04-09T01:29:58.151Z,8.63
2023-04-09T01:32:27.681Z,8.61
2023-04-09T01:35:01.325Z,8.62
2023-04-09T01:37:30.966Z,8.63
2023-04-09T01:40:00.617Z,8.64
2023-04-09T01:42:30.784Z,8.65
2023-04-09T01:45:03.071Z,8.65
2023-04-09T01:47:35.055Z,8.66
2023-04-09T01:50:04.575Z,8.66
2023-04-09T01:52:34.369Z,8.55
2023-04-09T01:55:04.247Z,8.54
2023-04-09T01:57:36.458Z,8.54
2023-04-09T02:00:07.576Z,8.54
2023-04-09T02:03:39.751Z,8.48
2023-04-09T02:06:27.676Z,8.45
2023-04-09T02:09:02.179Z,8.42
2023-04-09T02:11:40.502Z,8.43
2023-04-09T02:14:13.126Z,8.43
2023-04-09T02:16:43.907Z,8.43
2023-04-09T02:19:19.423Z,8.44
2023-04-09T02:21:53.704Z,8.45
2023-04-09T02:24:27.404Z,8.43
2023-04-09T02:27:07.549Z,8.40
2023-04-09T02:29:48.872Z,8.39
2023-04-09T02:32:33.686Z,8.39
2023-04-09T02:35:18.174Z,8.37
2023-04-09T02:37:57.811Z,8.34
2023-04-09T02:40:30.645Z,8.34
2023-04-09T02:43:09.161Z,8.34
2023-04-09T02:46:17.329Z,8.33
2023-04-09T02:48:59.656Z,8.33
2023-04-09T02:51:38.216Z,8.34
2023-04-09T02:54:20.805Z,8.34
2023-04-09T02:56:56.617Z,8.35
2023-04-09T02:59:33.166Z,8.35
2023-04-09T03:02:09.557Z,8.35
2023-04-09T03:04:48.446Z,8.35
2023-04-09T03:07:28.996Z,8.35
2023-04-09T03:10:04.645Z,8.36
2023-04-09T03:12:34.853Z,8.37
2023-04-09T03:15:06.295Z,8.38
2023-04-09T03:17:41.328Z,8.39
2023-04-09T03:20:19.302Z,8.40
2023-04-09T03:22:51.450Z,8.40
2023-04-09T03:25:38.881Z,8.40
2023-04-09T03:28:23.797Z,8.39
2023-04-09T03:31:01.773Z,8.37
2023-04-09T03:33:40.926Z,8.36
2023-04-09T03:36:18.372Z,8.36
2023-04-09T03:39:35.291Z,8.34
2023-04-09T03:42:20.731Z,8.32
2023-04-09T03:44:58.484Z,8.33
2023-04-09T03:47:43.211Z,8.32
2023-04-09T03:50:21.827Z,8.31
2023-04-09T03:52:57.815Z,8.31
2023-04-09T03:55:33.357Z,8.32
2023-04-09T03:58:19.273Z,8.33
2023-04-09T04:01:02.622Z,8.34
2023-04-09T04:03:52.032Z,8.33
2023-04-09T04:06:32.143Z,8.34
2023-04-09T04:09:29.936Z,8.33
2023-04-09T04:12:15.870Z,8.32
2023-04-09T04:15:21.078Z,8.29
2023-04-09T04:18:00.963Z,8.28
2023-04-09T04:20:49.629Z,8.28
2023-04-09T04:23:32.369Z,8.28
2023-04-09T04:26:12.299Z,8.26
2023-04-09T04:29:02.896Z,8.25
2023-04-09T04:31:59.502Z,8.24
2023-04-09T04:34:34.040Z,8.26
2023-04-09T04:37:20.881Z,8.27
2023-04-09T04:40:04.433Z,8.29
2023-04-09T04:42:36.581Z,8.30
2023-04-09T04:45:15.293Z,8.28
2023-04-09T04:47:54.691Z,8.29
2023-04-09T04:50:30.815Z,8.26
2023-04-09T04:53:18.559Z,8.23
2023-04-09T04:55:54.027Z,8.20
2023-04-09T04:58:31.181Z,8.20
2023-04-09T05:01:05.324Z,8.21
2023-04-09T05:03:41.246Z,8.22
2023-04-09T05:06:34.902Z,8.18
2023-04-09T05:09:08.629Z,8.15
2023-04-09T05:11:46.631Z,8.14
2023-04-09T05:14:24.508Z,8.13
2023-04-09T05:17:18.092Z,8.14
2023-04-09T05:20:07.680Z,8.14
2023-04-09T05:22:46.638Z,8.14
2023-04-09T05:25:16.972Z,8.16
2023-04-09T05:27:47.543Z,8.18
2023-04-09T05:30:20.151Z,8.18
2023-04-09T05:32:54.961Z,8.19
2023-04-09T05:35:33.616Z,8.22
2023-04-09T05:38:14.032Z,8.25
2023-04-09T05:40:55.921Z,8.28
2023-04-09T05:43:26.122Z,8.31
2023-04-09T05:45:58.894Z,8.34
2023-04-09T05:48:35.407Z,8.34
2023-04-09T05:51:06.903Z,8.36
2023-04-09T05:53:44.990Z,8.40
2023-04-09T05:56:16.598Z,8.42
2023-04-09T05:58:57.617Z,8.45
2023-04-09T06:01:37.992Z,8.47
2023-04-09T06:04:17.543Z,8.47
2023-04-09T06:07:01.007Z,8.45
2023-04-09T06:09:39.066Z,8.43
2023-04-09T06:12:20.298Z,8.36
2023-04-09T06:14:56.331Z,8.32
2023-04-09T06:17:35.619Z,8.30
2023-04-09T06:20:09.863Z,8.27
2023-04-09T06:22:39.720Z,8.27
2023-04-09T06:25:09.045Z,8.27
2023-04-09T06:27:39.858Z,8.28
2023-04-09T06:30:26.134Z,8.30
2023-04-09T06:33:08.203Z,8.29
2023-04-09T06:35:41.547Z,8.27
2023-04-09T06:38:13.984Z,8.28
2023-04-09T06:40:50.168Z,8.28
2023-04-09T06:43:25.073Z,8.27
2023-04-09T06:45:56.012Z,8.27
2023-04-09T06:48:25.628Z,8.31
2023-04-09T06:50:58.503Z,8.33
2023-04-09T06:53:30.820Z,8.35
2023-04-09T06:56:00.695Z,8.37
2023-04-09T06:58:32.044Z,8.39
2023-04-09T07:01:08.631Z,8.39
2023-04-09T07:03:51.166Z,8.39
2023-04-09T07:06:29.943Z,8.38
2023-04-09T07:08:59.420Z,8.40
2023-04-09T07:11:28.765Z,8.42
2023-04-09T07:14:02.714Z,8.44
2023-04-09T07:16:32.076Z,8.46
2023-04-09T07:19:01.419Z,8.47
2023-04-09T07:21:30.588Z,8.48
2023-04-09T07:24:00.137Z,8.46
2023-04-09T07:26:30.401Z,8.45
2023-04-09T07:28:59.759Z,8.44
2023-04-09T07:31:29.061Z,8.46
2023-04-09T07:33:58.242Z,8.47
2023-04-09T07:36:29.986Z,8.45
2023-04-09T07:39:00.150Z,8.45
2023-04-09T07:41:29.364Z,8.48
2023-04-09T07:43:59.360Z,8.47
2023-04-09T07:46:28.601Z,8.47
2023-04-09T07:48:57.981Z,8.47
2023-04-09T07:51:27.912Z,8.47
2023-04-09T07:53:57.167Z,8.47
2023-04-09T07:56:26.680Z,8.48
2023-04-09T07:58:59.344Z,8.53
2023-04-09T08:01:34.241Z,8.54
2023-04-09T08:04:08.610Z,8.56
2023-04-09T08:06:54.223Z,8.60
2023-04-09T08:09:24.879Z,8.62
2023-04-09T08:12:02.772Z,8.66
2023-04-09T08:14:38.624Z,8.68
2023-04-09T08:17:11.885Z,8.72
2023-04-09T08:19:45.058Z,8.71
2023-04-09T08:22:32.427Z,8.61
2023-04-09T08:25:14.656Z,8.65
2023-04-09T08:27:47.941Z,8.69
2023-04-09T08:30:22.976Z,8.74
2023-04-09T08:35:54.512Z,8.87
2023-04-09T08:38:37.487Z,8.96
2023-04-09T08:41:29.577Z,9.02
2023-04-09T08:44:26.579Z,9.07
2023-04-09T08:47:50.207Z,9.08
2023-04-09T08:50:25.710Z,9.08
2023-04-09T08:53:14.453Z,9.06
2023-04-09T08:56:00.909Z,9.09
2023-04-09T08:58:37.345Z,9.09
2023-04-09T09:01:35.265Z,9.11
2023-04-09T09:04:20.496Z,9.11
2023-04-09T09:06:55.421Z,9.13
2023-04-09T09:09:31.265Z,9.15
2023-04-09T09:12:03.977Z,9.21
2023-04-09T09:14:36.006Z,9.29
2023-04-09T09:17:17.272Z,9.41
2023-04-09T09:19:54.362Z,9.60
2023-04-09T09:23:02.920Z,9.74
2023-04-09T09:25:43.928Z,9.84
2023-04-09T09:28:20.293Z,9.94
2023-04-09T09:30:59.998Z,10.01
2023-04-09T09:33:41.146Z,10.04
2023-04-09T09:36:22.862Z,10.08
2023-04-09T09:39:10.563Z,10.14
2023-04-09T09:41:49.034Z,10.11
2023-04-09T09:44:51.236Z,10.09
2023-04-09T09:47:29.639Z,10.19
2023-04-09T09:50:07.494Z,10.38
2023-04-09T09:52:51.996Z,10.54
2023-04-09T09:55:33.541Z,10.78
2023-04-09T09:58:26.438Z,11.04
2023-04-09T10:00:59.914Z,11.24
2023-04-09T10:03:39.126Z,11.38
2023-04-09T10:06:20.571Z,11.48
2023-04-09T10:09:09.473Z,11.49
2023-04-09T10:11:50.082Z,11.50
2023-04-09T10:14:30.023Z,11.52
2023-04-09T10:17:15.734Z,11.51
2023-04-09T10:20:21.665Z,11.48
2023-04-09T10:22:56.922Z,11.41
2023-04-09T10:25:34.942Z,11.35
2023-04-09T10:28:22.326Z,11.35
2023-04-09T10:31:01.193Z,11.36
2023-04-09T10:33:46.508Z,11.39
2023-04-09T10:36:25.155Z,11.39
2023-04-09T10:38:59.982Z,11.37
2023-04-09T10:41:58.696Z,11.36
2023-04-09T10:45:06.332Z,11.31
2023-04-09T10:47:46.578Z,11.25
2023-04-09T10:50:43.034Z,11.24
2023-04-09T10:53:42.457Z,11.19
2023-04-09T10:56:32.736Z,11.14
2023-04-09T10:59:31.278Z,11.13
2023-04-09T11:02:39.074Z,11.16
2023-04-09T11:05:35.197Z,11.19
2023-04-09T11:08:15.506Z,11.24
2023-04-09T11:11:02.196Z,11.29
2023-04-09T11:13:36.519Z,11.33
2023-04-09T11:16:07.536Z,11.39
2023-04-09T11:18:42.273Z,11.44
2023-04-09T11:21:21.720Z,11.46
2023-04-09T11:24:03.003Z,11.47
2023-04-09T11:26:46.934Z,11.45
2023-04-09T11:29:26.195Z,11.41
2023-04-09T11:32:10.387Z,11.39
2023-04-09T11:34:57.778Z,11.38
2023-04-09T11:37:43.484Z,11.37
2023-04-09T11:40:39.720Z,11.36
2023-04-09T11:43:46.309Z,11.37
2023-04-09T11:46:21.911Z,11.36
2023-04-09T11:49:15.391Z,11.34
2023-04-09T11:51:58.520Z,11.36
2023-04-09T11:54:35.794Z,11.43
2023-04-09T11:57:11.313Z,11.48
2023-04-09T11:59:54.456Z,11.47
2023-04-09T12:02:26.287Z,11.48
2023-04-09T12:05:14.934Z,11.47
2023-04-09T12:07:56.735Z,11.41
2023-04-09T12:10:47.447Z,11.33
2023-04-09T12:13:34.407Z,11.27
2023-04-09T12:16:25.259Z,11.26
2023-04-09T12:19:09.910Z,11.27
2023-04-09T12:21:58.563Z,11.30
2023-04-09T12:24:34.558Z,11.38
2023-04-09T12:27:25.775Z,11.46
2023-04-09T12:30:04.784Z,11.53
2023-04-09T12:32:51.539Z,11.54
2023-04-09T12:35:28.627Z,11.54
2023-04-09T12:38:05.090Z,11.55
2023-04-09T12:40:43.322Z,11.58
2023-04-09T12:43:20.001Z,11.61
2023-04-09T12:46:01.655Z,11.61
2023-04-09T12:48:37.175Z,11.59
2023-04-09T12:51:25.600Z,11.55
2023-04-09T12:54:15.294Z,11.45
2023-04-09T12:57:06.044Z,11.39
2023-04-09T12:59:48.393Z,11.38
2023-04-09T13:02:35.495Z,11.38
2023-04-09T13:05:23.263Z,11.38
2023-04-09T13:07:53.498Z,11.42
2023-04-09T13:10:26.108Z,11.43
2023-04-09T13:13:00.986Z,11.44
2023-04-09T13:15:48.199Z,11.44
2023-04-09T13:18:22.657Z,11.40
2023-04-09T13:21:11.706Z,11.34
2023-04-09T13:23:47.538Z,11.27
2023-04-09T13:26:23.028Z,11.22
2023-04-09T13:28:57.058Z,11.22
2023-04-09T13:31:43.561Z,11.23
2023-04-09T13:34:31.383Z,11.29
2023-04-09T13:37:15.928Z,11.37
2023-04-09T13:39:47.432Z,11.42
2023-04-09T13:42:20.500Z,11.42
2023-04-09T13:45:00.851Z,11.43
2023-04-09T13:47:45.864Z,11.48
2023-04-09T13:50:28.837Z,11.57
2023-04-09T13:53:23.746Z,11.65
2023-04-09T13:55:56.772Z,11.70
2023-04-09T13:58:37.515Z,11.76
2023-04-09T14:01:31.014Z,11.85
2023-04-09T14:04:37.655Z,11.87
2023-04-09T14:07:18.553Z,11.83
2023-04-09T14:09:56.677Z,11.82
2023-04-09T14:12:34.520Z,11.85
2023-04-09T14:15:09.541Z,11.92
2023-04-09T14:17:41.066Z,11.98
2023-04-09T14:20:21.036Z,12.03
2023-04-09T14:22:56.284Z,12.06
2023-04-09T14:25:38.020Z,12.06
2023-04-09T14:28:29.226Z,12.05
2023-04-09T14:31:08.187Z,12.06
2023-04-09T14:33:59.083Z,12.02
2023-04-09T14:37:07.548Z,12.07
2023-04-09T14:40:13.514Z,12.13
2023-04-09T14:42:45.384Z,12.14
2023-04-09T14:45:37.911Z,12.09
2023-04-09T14:48:16.699Z,12.09
2023-04-09T14:50:57.898Z,12.06
2023-04-09T14:53:42.759Z,12.05
2023-04-09T14:56:24.056Z,12.04
2023-04-09T14:59:00.656Z,12.03
2023-04-09T15:01:34.798Z,11.99
2023-04-09T15:04:24.648Z,11.97
2023-04-09T15:07:19.389Z,11.98
2023-04-09T15:10:00.651Z,11.98
2023-04-09T15:12:37.728Z,11.99
2023-04-09T15:15:14.621Z,11.97
2023-04-09T15:17:51.195Z,11.95
2023-04-09T15:20:26.534Z,11.92
2023-04-09T15:22:59.837Z,11.85
2023-04-09T15:25:41.760Z,11.79
2023-04-09T15:28:18.902Z,11.75
2023-04-09T15:30:59.125Z,11.74
2023-04-09T15:33:42.889Z,11.68
2023-04-09T15:36:24.025Z,11.64
2023-04-09T15:39:18.639Z,11.61
2023-04-09T15:42:19.331Z,11.62
2023-04-09T15:45:16.906Z,11.62
2023-04-09T15:48:05.726Z,11.61
2023-04-09T15:51:08.857Z,11.56
2023-04-09T15:54:08.277Z,11.53
2023-04-09T15:56:57.636Z,11.50
2023-04-09T15:59:58.007Z,11.49
2023-04-09T16:02:59.119Z,11.50
2023-04-09T16:05:46.648Z,11.52
2023-04-09T16:08:44.309Z,11.52
2023-04-09T16:11:39.018Z,11.51
2023-04-09T16:14:26.950Z,11.48
2023-04-09T16:17:22.132Z,11.48
2023-04-09T16:20:09.002Z,11.44
2023-04-09T16:22:48.489Z,11.40
2023-04-09T16:25:40.252Z,11.37
2023-04-09T16:31:18.513Z,11.23
2023-04-09T16:34:05.796Z,11.20
2023-04-09T16:36:44.834Z,11.16
2023-04-09T16:39:21.708Z,11.13
2023-04-09T16:42:21.649Z,11.12
2023-04-09T16:45:05.963Z,11.07
2023-04-09T16:47:57.579Z,11.02
2023-04-09T16:50:43.105Z,10.98
2023-04-09T16:53:20.621Z,10.95
2023-04-09T16:56:02.331Z,10.91
2023-04-09T16:59:10.421Z,10.90
2023-04-09T17:01:42.885Z,10.89
2023-04-09T17:04:18.471Z,10.90
2023-04-09T17:06:49.193Z,10.92
2023-04-09T17:09:19.742Z,10.95
2023-04-09T17:12:01.423Z,10.96
2023-04-09T17:14:43.281Z,10.98
2023-04-09T17:17:24.323Z,10.97
2023-04-09T17:20:01.605Z,10.98
2023-04-09T17:22:45.290Z,10.97
2023-04-09T17:25:19.421Z,10.97
2023-04-09T17:27:53.181Z,10.94
2023-04-09T17:30:40.250Z,10.91
2023-04-09T17:33:17.364Z,10.89
2023-04-09T17:36:04.053Z,10.86
2023-04-09T17:38:44.136Z,10.84
2023-04-09T17:41:19.321Z,10.83
2023-04-09T17:43:57.043Z,10.83
2023-04-09T17:46:34.888Z,10.81
2023-04-09T17:49:10.623Z,10.82
2023-04-09T17:51:44.294Z,10.84
2023-04-09T17:54:16.884Z,10.86
2023-04-09T17:56:49.833Z,10.86
2023-04-09T17:59:20.960Z,10.87
2023-04-09T18:02:09.664Z,10.87
2023-04-09T18:04:54.124Z,10.83
2023-04-09T18:07:52.161Z,10.82
2023-04-09T18:10:34.177Z,10.81
2023-04-09T18:13:10.786Z,10.82
2023-04-09T18:15:51.451Z,10.81
2023-04-09T18:18:39.033Z,10.81
2023-04-09T18:22:21.933Z,10.79
2023-04-09T18:26:14.264Z,10.71
2023-04-09T18:29:33.656Z,10.65
2023-04-09T18:32:26.035Z,10.64
2023-04-09T18:35:56.753Z,10.64
2023-04-09T18:38:43.667Z,10.62
2023-04-09T18:42:28.458Z,10.62
2023-04-09T18:45:23.960Z,10.58
2023-04-09T18:48:07.462Z,10.60
2023-04-09T18:51:41.691Z,10.62
2023-04-09T18:54:39.825Z,10.62
2023-04-09T19:01:21.008Z,10.62
2023-04-09T19:09:40.730Z,10.66
2023-04-09T19:12:24.327Z,10.66
2023-04-09T19:14:54.433Z,10.63
2023-04-09T19:17:33.664Z,10.59
2023-04-09T19:20:20.039Z,10.55
2023-04-09T19:32:13.343Z,10.32
2023-04-09T20:13:14.984Z,9.72
2023-04-09T20:20:46.982Z,9.66
2023-04-09T20:24:00.897Z,9.62
2023-04-09T20:26:42.182Z,9.62
2023-04-09T20:29:23.656Z,9.65
2023-04-09T20:32:41.679Z,9.67
2023-04-09T20:35:14.990Z,9.66
2023-04-09T20:38:09.142Z,9.65
2023-04-09T20:40:48.683Z,9.64
2023-04-09T20:43:39.805Z,9.63
2023-04-09T20:46:33.983Z,9.62
2023-04-09T20:49:33.800Z,9.60
2023-04-09T20:52:32.961Z,9.56
2023-04-09T20:55:16.042Z,9.50
2023-04-09T20:58:14.879Z,9.45
2023-04-09T21:01:24.053Z,9.37
2023-04-09T21:04:25.280Z,9.18
2023-04-09T21:07:15.968Z,9.09
2023-04-09T21:10:02.549Z,9.06
2023-04-09T21:12:57.567Z,9.01
2023-04-09T21:15:42.333Z,8.97
2023-04-09T21:18:22.599Z,8.91
2023-04-09T21:20:54.184Z,8.87
2023-04-09T21:23:25.484Z,8.84
2023-04-09T21:26:00.570Z,8.80
2023-04-09T21:28:34.327Z,8.73
2023-04-09T21:31:12.427Z,8.70
2023-04-09T21:35:18.717Z,8.64
2023-04-09T21:38:39.896Z,8.55
2023-04-09T21:41:10.811Z,8.51
2023-04-09T21:43:44.842Z,8.50
2023-04-09T21:46:17.988Z,8.47
2023-04-09T21:49:16.389Z,8.41
2023-04-09T21:51:47.652Z,8.32
2023-04-09T21:54:21.254Z,8.26
2023-04-09T21:56:51.341Z,8.11
2023-04-09T21:59:37.702Z,8.06
2023-04-09T22:02:09.312Z,8.00
2023-04-09T22:04:45.468Z,7.96
2023-04-09T22:07:18.677Z,7.91
2023-04-09T22:09:55.792Z,7.89
2023-04-09T22:12:28.647Z,7.83
2023-04-09T22:15:11.364Z,7.79
2023-04-09T22:17:51.626Z,7.73
2023-04-09T22:20:23.534Z,7.67
2023-04-09T22:23:08.952Z,7.62
2023-04-09T22:25:42.549Z,7.56
2023-04-09T22:28:16.045Z,7.53
2023-04-09T22:30:51.006Z,7.48
2023-04-09T22:33:26.991Z,7.43
2023-04-09T22:36:03.469Z,7.37
2023-04-09T22:38:50.439Z,7.30
2023-04-09T22:41:23.883Z,7.24
2023-04-09T22:43:58.605Z,7.19
2023-04-09T22:46:41.669Z,7.14
2023-04-09T22:49:14.913Z,7.11
2023-04-09T22:51:48.700Z,7.03
2023-04-09T22:54:30.525Z,6.94
2023-04-09T22:57:11.409Z,6.90
2023-04-09T22:59:45.616Z,6.88
2023-04-09T23:02:25.772Z,6.86
2023-04-09T23:05:13.020Z,6.82
2023-04-09T23:07:58.547Z,6.76
2023-04-09T23:10:42.554Z,6.66
2023-04-09T23:13:21.210Z,6.57
2023-04-09T23:16:00.273Z,6.50
2023-04-09T23:18:39.182Z,6.47
2023-04-09T23:21:21.260Z,6.47
2023-04-09T23:24:00.369Z,6.44
2023-04-09T23:26:31.217Z,6.44
2023-04-09T23:29:03.902Z,6.46
2023-04-09T23:31:38.988Z,6.48
2023-04-09T23:34:12.334Z,6.51
2023-04-09T23:36:42.399Z,6.54
2023-04-09T23:39:23.653Z,6.57
2023-04-09T23:41:59.695Z,6.57
2023-04-09T23:44:33.844Z,6.58
2023-04-09T23:47:06.960Z,6.60
2023-04-09T23:49:40.281Z,6.62
2023-04-09T23:52:17.042Z,6.67
2023-04-09T23:55:07.797Z,6.66
2023-04-09T23:57:45.615Z,6.67
